createdAt,value
2022-10-13T00:01:46.518Z,4.77
2022-10-13T00:04:13.033Z,6.30
2022-10-13T00:06:39.465Z,5.63
2022-10-13T00:09:05.889Z,5.50
2022-10-13T00:11:32.395Z,5.43
2022-10-13T00:14:00.989Z,5.73
2022-10-13T00:16:29.945Z,5.63
2022-10-13T00:18:56.574Z,5.97
2022-10-13T00:21:24.200Z,5.97
2022-10-13T00:23:51.387Z,6.23
2022-10-13T00:26:19.845Z,5.87
2022-10-13T00:28:51.302Z,6.43
2022-10-13T00:31:18.944Z,5.77
2022-10-13T00:33:45.448Z,5.70
2022-10-13T00:36:12.662Z,6.00
2022-10-13T00:38:39.079Z,6.13
2022-10-13T00:41:06.224Z,6.13
2022-10-13T00:43:52.935Z,5.90
2022-10-13T00:46:22.143Z,6.17
2022-10-13T00:48:56.842Z,6.00
2022-10-13T00:51:25.716Z,6.00
2022-10-13T00:53:56.459Z,6.40
2022-10-13T00:56:23.846Z,6.63
2022-10-13T00:58:51.075Z,6.27
2022-10-13T01:01:18.141Z,6.00
2022-10-13T01:03:44.654Z,6.23
2022-10-13T01:06:12.690Z,6.30
2022-10-13T01:08:39.210Z,5.80
2022-10-13T01:11:08.939Z,5.90
2022-10-13T01:13:55.534Z,6.10
2022-10-13T01:16:29.832Z,6.83
2022-10-13T01:19:14.561Z,6.27
2022-10-13T01:21:51.100Z,6.40
2022-10-13T01:24:35.542Z,6.63
2022-10-13T01:27:16.659Z,6.63
2022-10-13T01:30:04.639Z,6.50
2022-10-13T01:32:51.653Z,6.00
2022-10-13T01:35:22.093Z,6.60
2022-10-13T01:37:51.503Z,6.23
2022-10-13T01:40:23.948Z,7.20
2022-10-13T01:43:04.227Z,6.73
2022-10-13T01:45:36.055Z,6.03
2022-10-13T01:48:03.769Z,6.50
2022-10-13T01:50:30.943Z,7.30
2022-10-13T01:53:00.058Z,6.30
2022-10-13T01:55:26.512Z,6.40
2022-10-13T01:57:52.942Z,7.30
2022-10-13T02:00:21.002Z,7.10
2022-10-13T02:02:53.364Z,6.93
2022-10-13T02:05:30.103Z,6.60
2022-10-13T02:08:02.132Z,7.27
2022-10-13T02:10:34.251Z,7.33
2022-10-13T02:13:02.492Z,6.93
2022-10-13T02:15:31.153Z,7.43
2022-10-13T02:18:00.983Z,6.87
2022-10-13T02:20:27.646Z,6.60
2022-10-13T02:23:00.451Z,6.30
2022-10-13T02:25:27.596Z,6.90
2022-10-13T02:27:54.230Z,6.30
2022-10-13T02:30:22.688Z,6.93
2022-10-13T02:32:49.247Z,6.50
2022-10-13T02:35:15.631Z,6.70
2022-10-13T02:37:42.178Z,6.80
2022-10-13T02:40:10.084Z,6.70
2022-10-13T02:42:36.529Z,6.40
2022-10-13T02:45:03.698Z,6.93
2022-10-13T02:47:30.103Z,6.90
2022-10-13T02:49:56.545Z,6.23
2022-10-13T02:52:23.064Z,6.67
2022-10-13T02:54:49.475Z,6.50
2022-10-13T02:57:16.014Z,7.10
2022-10-13T02:59:43.226Z,7.17
2022-10-13T03:02:09.758Z,7.60
2022-10-13T03:04:36.162Z,7.03
2022-10-13T03:07:02.784Z,7.60
2022-10-13T03:09:29.206Z,6.93
2022-10-13T03:11:55.678Z,7.10
2022-10-13T03:14:22.159Z,6.93
2022-10-13T03:16:48.600Z,7.00
2022-10-13T03:19:15.505Z,6.90
2022-10-13T03:21:42.102Z,6.87
2022-10-13T03:24:08.578Z,7.13
2022-10-13T03:26:35.182Z,7.20
2022-10-13T03:29:01.684Z,6.73
2022-10-13T03:31:28.480Z,7.27
2022-10-13T03:34:01.690Z,7.33
2022-10-13T03:36:28.224Z,7.40
2022-10-13T03:38:54.654Z,7.23
2022-10-13T03:41:21.287Z,7.20
2022-10-13T03:43:49.460Z,6.90
2022-10-13T03:46:17.445Z,7.23
2022-10-13T03:48:45.324Z,6.90
2022-10-13T03:51:13.272Z,7.53
2022-10-13T03:53:45.321Z,7.07
2022-10-13T03:56:14.350Z,6.57
2022-10-13T03:58:53.529Z,6.60
2022-10-13T04:01:20.561Z,6.27
2022-10-13T04:03:48.223Z,6.80
2022-10-13T04:06:14.677Z,7.07
2022-10-13T04:08:41.180Z,7.20
2022-10-13T04:11:09.265Z,7.00
2022-10-13T04:13:38.137Z,7.30
2022-10-13T04:16:05.446Z,6.60
2022-10-13T04:18:32.386Z,6.90
2022-10-13T04:20:59.123Z,7.10
2022-10-13T04:23:25.557Z,7.10
2022-10-13T04:25:52.026Z,6.30
2022-10-13T04:28:18.560Z,7.97
2022-10-13T04:30:49.251Z,6.67
2022-10-13T04:33:16.047Z,6.70
2022-10-13T04:35:42.461Z,7.20
2022-10-13T04:38:08.991Z,6.77
2022-10-13T04:40:35.872Z,7.53
2022-10-13T04:43:02.414Z,7.10
2022-10-13T04:45:28.992Z,6.50
2022-10-13T04:47:55.429Z,7.00
2022-10-13T04:50:22.979Z,6.80
2022-10-13T04:52:58.428Z,7.23
2022-10-13T04:55:24.970Z,7.37
2022-10-13T04:57:51.450Z,7.17
2022-10-13T05:00:17.950Z,6.60
2022-10-13T05:02:44.428Z,7.03
2022-10-13T05:05:10.816Z,6.60
2022-10-13T05:07:37.300Z,7.10
2022-10-13T05:10:04.143Z,7.13
2022-10-13T05:12:30.695Z,7.00
2022-10-13T05:14:57.202Z,7.27
2022-10-13T05:17:23.631Z,7.17
2022-10-13T05:19:50.118Z,6.77
2022-10-13T05:22:16.567Z,7.50
2022-10-13T05:24:43.016Z,7.07
2022-10-13T05:27:10.538Z,7.47
2022-10-13T05:29:37.443Z,7.20
2022-10-13T05:32:04.113Z,7.47
2022-10-13T05:34:30.575Z,7.33
2022-10-13T05:36:57.026Z,6.90
2022-10-13T05:39:23.520Z,7.00
2022-10-13T05:41:50.008Z,7.27
2022-10-13T05:44:20.639Z,7.30
2022-10-13T05:46:53.190Z,7.10
2022-10-13T05:49:19.659Z,7.03
2022-10-13T05:51:47.662Z,6.67
2022-10-13T05:54:17.179Z,6.67
2022-10-13T05:56:46.655Z,7.30
2022-10-13T05:59:14.604Z,7.07
2022-10-13T06:01:45.708Z,7.27
2022-10-13T06:04:15.380Z,7.17
2022-10-13T06:06:43.800Z,6.93
2022-10-13T06:09:10.465Z,7.23
2022-10-13T06:11:36.991Z,7.33
2022-10-13T06:14:03.516Z,7.47
2022-10-13T06:16:29.927Z,6.80
2022-10-13T06:18:57.568Z,7.37
2022-10-13T06:21:24.343Z,7.70
2022-10-13T06:23:50.881Z,7.43
2022-10-13T06:26:19.985Z,8.47
2022-10-13T06:28:50.465Z,8.37
2022-10-13T06:31:18.898Z,7.33
2022-10-13T06:33:45.402Z,7.80
2022-10-13T06:36:11.844Z,7.47
2022-10-13T06:38:38.271Z,8.47
2022-10-13T06:41:05.365Z,8.63
2022-10-13T06:43:38.891Z,8.07
2022-10-13T06:46:09.396Z,8.20
2022-10-13T06:48:35.872Z,9.13
2022-10-13T06:51:03.460Z,8.67
2022-10-13T06:53:30.175Z,8.90
2022-10-13T06:55:57.422Z,9.93
2022-10-13T06:58:23.905Z,8.97
2022-10-13T07:00:50.370Z,9.00
2022-10-13T07:03:16.842Z,9.40
2022-10-13T07:05:43.284Z,9.77
2022-10-13T07:08:09.704Z,8.70
2022-10-13T07:10:37.520Z,8.07
2022-10-13T07:13:04.023Z,7.73
2022-10-13T07:15:30.612Z,8.10
2022-10-13T07:17:57.043Z,7.57
2022-10-13T07:20:23.939Z,7.90
2022-10-13T07:22:53.497Z,7.80
2022-10-13T07:25:20.428Z,8.60
2022-10-13T07:27:46.899Z,8.50
2022-10-13T07:30:13.402Z,8.40
2022-10-13T07:32:42.021Z,8.80
2022-10-13T07:35:10.480Z,9.93
2022-10-13T07:37:37.335Z,8.90
2022-10-13T07:40:04.444Z,8.93
2022-10-13T07:42:31.749Z,9.77
2022-10-13T07:44:58.389Z,8.80
2022-10-13T07:47:28.585Z,8.40
2022-10-13T07:49:55.762Z,8.17
2022-10-13T07:52:22.950Z,8.43
2022-10-13T07:54:50.057Z,8.23
2022-10-13T07:57:16.569Z,8.57
2022-10-13T07:59:43.019Z,8.93
2022-10-13T08:02:12.722Z,9.50
2022-10-13T08:04:39.238Z,9.77
2022-10-13T08:07:06.115Z,10.30
2022-10-13T08:09:33.072Z,8.90
2022-10-13T08:12:00.807Z,8.00
2022-10-13T08:14:29.031Z,8.47
2022-10-13T08:16:55.861Z,8.50
2022-10-13T08:19:22.298Z,8.57
2022-10-13T08:22:09.089Z,9.07
2022-10-13T08:24:35.852Z,9.00
2022-10-13T08:27:02.362Z,8.37
2022-10-13T08:29:28.908Z,9.50
2022-10-13T08:31:55.535Z,9.03
2022-10-13T08:34:25.395Z,9.27
2022-10-13T08:36:53.391Z,8.13
2022-10-13T08:39:21.028Z,9.43
2022-10-13T08:41:47.625Z,9.60
2022-10-13T08:47:31.845Z,9.17
2022-10-13T08:50:02.428Z,8.60
2022-10-13T08:52:30.104Z,8.23
2022-10-13T08:54:57.182Z,8.10
2022-10-13T08:57:24.269Z,8.50
2022-10-13T08:59:52.190Z,7.77
2022-10-13T09:02:29.308Z,8.98
2022-10-13T09:04:57.283Z,8.87
2022-10-13T09:07:28.326Z,8.13
2022-10-13T09:09:55.932Z,7.90
2022-10-13T09:12:25.087Z,7.83
2022-10-13T09:14:59.779Z,8.10
2022-10-13T09:17:26.955Z,8.50
2022-10-13T09:19:59.522Z,9.47
2022-10-13T09:22:27.640Z,9.00
2022-10-13T09:25:12.314Z,8.40
2022-10-13T09:27:52.724Z,8.13
2022-10-13T09:30:25.807Z,9.33
2022-10-13T09:33:14.112Z,10.23
2022-10-13T09:35:44.100Z,10.53
2022-10-13T09:38:10.493Z,11.40
2022-10-13T09:40:37.245Z,10.90
2022-10-13T09:43:06.364Z,10.90
2022-10-13T09:45:32.797Z,10.43
2022-10-13T09:48:02.059Z,10.80
2022-10-13T09:50:32.828Z,10.33
2022-10-13T09:53:17.832Z,11.10
2022-10-13T09:55:48.560Z,11.47
2022-10-13T09:58:24.924Z,10.33
2022-10-13T10:00:51.669Z,11.10
2022-10-13T10:03:27.382Z,10.60
2022-10-13T10:06:00.182Z,10.77
2022-10-13T10:09:01.593Z,10.80
2022-10-13T10:11:28.656Z,9.87
2022-10-13T10:13:55.997Z,9.60
2022-10-13T10:16:30.305Z,9.80
2022-10-13T10:19:19.721Z,10.33
2022-10-13T10:21:46.343Z,8.20
2022-10-13T10:24:24.681Z,8.53
2022-10-13T10:27:00.199Z,9.30
2022-10-13T10:29:37.227Z,9.70
2022-10-13T10:32:21.530Z,9.63
2022-10-13T10:34:53.662Z,8.40
2022-10-13T10:37:25.159Z,9.00
2022-10-13T10:40:10.955Z,8.50
2022-10-13T10:43:12.439Z,8.60
2022-10-13T10:45:39.480Z,8.97
2022-10-13T10:48:23.456Z,9.10
2022-10-13T10:50:51.274Z,11.27
2022-10-13T10:53:41.079Z,8.10
2022-10-13T10:56:26.906Z,32.87
2022-10-13T10:58:58.624Z,10.30
2022-10-13T11:01:29.696Z,9.73
2022-10-13T11:04:22.627Z,8.43
2022-10-13T11:06:49.062Z,7.83
2022-10-13T11:09:35.554Z,8.40
2022-10-13T11:12:02.049Z,9.07
2022-10-13T11:14:29.969Z,7.90
2022-10-13T11:17:05.375Z,7.60
2022-10-13T11:19:39.037Z,7.70
2022-10-13T11:22:05.742Z,7.77
2022-10-13T11:24:36.627Z,8.37
2022-10-13T11:27:10.615Z,7.30
2022-10-13T11:29:46.677Z,8.47
2022-10-13T11:32:25.785Z,8.10
2022-10-13T11:35:04.633Z,7.47
2022-10-13T11:37:48.306Z,7.40
2022-10-13T11:40:32.482Z,7.73
2022-10-13T11:43:17.777Z,7.47
2022-10-13T11:45:47.231Z,8.70
2022-10-13T11:48:33.472Z,7.93
2022-10-13T11:50:59.863Z,7.63
2022-10-13T11:53:28.027Z,7.90
2022-10-13T11:55:55.780Z,7.47
2022-10-13T11:58:26.638Z,7.27
2022-10-13T12:00:54.764Z,7.40
2022-10-13T12:03:22.740Z,7.60
2022-10-13T12:05:50.115Z,7.53
2022-10-13T12:08:18.161Z,7.60
2022-10-13T12:10:44.688Z,7.80
2022-10-13T12:13:30.341Z,7.13
2022-10-13T12:16:06.619Z,7.87
2022-10-13T12:18:34.776Z,8.20
2022-10-13T12:21:03.245Z,8.40
2022-10-13T12:23:31.597Z,7.50
2022-10-13T12:25:58.862Z,8.03
2022-10-13T12:28:29.819Z,7.80
2022-10-13T12:31:00.046Z,7.20
2022-10-13T12:33:30.912Z,7.87
2022-10-13T12:36:12.007Z,7.33
2022-10-13T12:38:38.914Z,6.83
2022-10-13T12:41:05.604Z,7.10
2022-10-13T12:43:32.085Z,7.40
2022-10-13T12:45:58.648Z,6.90
2022-10-13T12:48:35.279Z,6.80
2022-10-13T12:51:26.713Z,7.03
2022-10-13T12:53:53.370Z,7.13
2022-10-13T12:56:26.329Z,6.60
2022-10-13T12:58:52.894Z,6.60
2022-10-13T13:01:27.385Z,5.93
2022-10-13T13:03:58.353Z,6.87
2022-10-13T13:06:32.200Z,6.80
2022-10-13T13:09:07.562Z,7.40
2022-10-13T13:11:35.515Z,8.67
2022-10-13T13:14:22.679Z,7.07
2022-10-13T13:17:07.889Z,7.70
2022-10-13T13:19:35.261Z,7.33
2022-10-13T13:22:03.850Z,6.43
2022-10-13T13:24:39.703Z,7.10
2022-10-13T13:27:21.720Z,7.60
2022-10-13T13:29:48.451Z,7.00
2022-10-13T13:32:17.404Z,7.23
2022-10-13T13:34:49.543Z,6.70
2022-10-13T13:37:22.147Z,7.80
2022-10-13T13:39:49.843Z,6.70
2022-10-13T13:42:16.477Z,7.03
2022-10-13T13:44:43.055Z,6.53
2022-10-13T13:47:15.913Z,6.77
2022-10-13T13:49:45.773Z,7.30
2022-10-13T13:52:12.338Z,7.00
2022-10-13T13:54:38.818Z,6.80
2022-10-13T13:57:05.327Z,6.40
2022-10-13T13:59:32.228Z,6.90
2022-10-13T14:01:58.737Z,6.47
2022-10-13T14:04:26.086Z,6.53
2022-10-13T14:06:52.988Z,6.57
2022-10-13T14:09:19.536Z,6.77
2022-10-13T14:11:46.033Z,6.53
2022-10-13T14:14:12.515Z,6.57
2022-10-13T14:16:39.113Z,6.77
2022-10-13T14:19:05.552Z,6.67
2022-10-13T14:21:32.065Z,7.23
2022-10-13T14:24:00.672Z,6.70
2022-10-13T14:26:27.103Z,7.40
2022-10-13T14:28:53.566Z,7.73
2022-10-13T14:31:19.995Z,7.17
2022-10-13T14:33:48.729Z,6.70
2022-10-13T14:36:18.485Z,6.43
2022-10-13T14:38:44.989Z,7.03
2022-10-13T14:41:11.762Z,7.23
2022-10-13T14:43:38.174Z,7.10
2022-10-13T14:46:05.654Z,7.03
2022-10-13T14:48:35.480Z,7.40
2022-10-13T14:51:08.610Z,7.23
2022-10-13T14:53:35.986Z,7.43
2022-10-13T14:56:02.774Z,7.27
2022-10-13T14:58:30.572Z,7.03
2022-10-13T15:00:57.078Z,7.03
2022-10-13T15:03:24.028Z,7.17
2022-10-13T15:05:50.553Z,7.23
2022-10-13T15:08:17.331Z,7.33
2022-10-13T15:10:45.180Z,8.77
2022-10-13T15:13:11.837Z,7.50
2022-10-13T15:15:45.496Z,7.23
2022-10-13T15:18:11.932Z,7.57
2022-10-13T15:20:39.760Z,7.10
2022-10-13T15:23:06.666Z,7.07
2022-10-13T15:25:33.108Z,7.20
2022-10-13T15:27:59.590Z,7.37
2022-10-13T15:30:26.060Z,7.80
2022-10-13T15:32:53.031Z,7.30
2022-10-13T15:35:19.520Z,7.47
2022-10-13T15:37:45.922Z,7.33
2022-10-13T15:40:12.588Z,7.37
2022-10-13T15:42:38.998Z,7.97
2022-10-13T15:45:10.383Z,6.97
2022-10-13T15:47:37.904Z,7.60
2022-10-13T15:50:04.506Z,8.23
2022-10-13T15:52:34.707Z,7.77
2022-10-13T15:55:01.831Z,9.10
2022-10-13T15:57:28.562Z,8.70
2022-10-13T15:59:55.095Z,8.47
2022-10-13T16:02:23.350Z,8.17
2022-10-13T16:04:50.237Z,8.70
2022-10-13T16:07:18.402Z,8.80
2022-10-13T16:09:45.195Z,8.67
2022-10-13T16:12:11.639Z,8.50
2022-10-13T16:14:38.066Z,8.80
2022-10-13T16:17:04.528Z,8.13
2022-10-13T16:19:31.009Z,8.70
2022-10-13T16:21:57.490Z,8.63
2022-10-13T16:24:23.970Z,8.37
2022-10-13T16:26:50.433Z,9.43
2022-10-13T16:29:16.919Z,8.63
2022-10-13T16:31:43.464Z,8.90
2022-10-13T16:34:10.442Z,8.80
2022-10-13T16:36:36.869Z,9.43
2022-10-13T16:39:03.520Z,8.93
2022-10-13T16:41:30.009Z,8.87
2022-10-13T16:43:56.504Z,8.67
2022-10-13T16:46:23.159Z,9.00
2022-10-13T16:48:49.701Z,8.20
2022-10-13T16:51:20.494Z,7.90
2022-10-13T16:53:47.954Z,8.73
2022-10-13T16:56:14.405Z,8.50
2022-10-13T16:58:45.269Z,8.40
2022-10-13T17:01:12.309Z,7.77
2022-10-13T17:03:39.431Z,9.10
2022-10-13T17:06:06.094Z,8.77
2022-10-13T17:08:32.692Z,8.57
2022-10-13T17:11:00.724Z,8.97
2022-10-13T17:13:27.334Z,9.43
2022-10-13T17:15:54.725Z,8.37
2022-10-13T17:18:21.641Z,9.33
2022-10-13T17:20:52.101Z,8.73
2022-10-13T17:23:18.558Z,9.40
2022-10-13T17:25:44.995Z,9.90
2022-10-13T17:28:11.484Z,10.80
2022-10-13T17:30:38.042Z,9.40
2022-10-13T17:33:04.744Z,9.80
2022-10-13T17:35:31.555Z,9.43
2022-10-13T17:37:58.832Z,9.57
2022-10-13T17:40:25.268Z,9.53
2022-10-13T17:42:51.734Z,10.97
2022-10-13T17:45:18.761Z,9.93
2022-10-13T17:47:51.752Z,9.33
2022-10-13T17:50:19.563Z,10.33
2022-10-13T17:52:46.100Z,9.43
2022-10-13T17:55:12.604Z,10.23
2022-10-13T17:57:39.081Z,9.40
2022-10-13T18:00:06.992Z,9.67
2022-10-13T18:02:38.806Z,9.00
2022-10-13T18:05:05.336Z,10.10
2022-10-13T18:07:31.896Z,10.20
2022-10-13T18:09:58.361Z,10.00
2022-10-13T18:12:24.802Z,9.43
2022-10-13T18:14:51.390Z,9.77
2022-10-13T18:17:17.995Z,10.20
2022-10-13T18:19:44.733Z,9.53
2022-10-13T18:22:11.743Z,11.07
2022-10-13T18:24:38.572Z,10.73
2022-10-13T18:27:05.071Z,10.83
2022-10-13T18:29:35.173Z,10.83
2022-10-13T18:32:01.717Z,10.90
2022-10-13T18:34:28.220Z,10.50
2022-10-13T18:36:55.903Z,10.73
2022-10-13T18:39:26.569Z,11.30
2022-10-13T18:41:53.890Z,11.13
2022-10-13T18:44:20.969Z,11.27
2022-10-13T18:46:50.928Z,10.27
2022-10-13T18:49:23.243Z,10.90
2022-10-13T18:51:50.763Z,11.07
2022-10-13T18:54:17.368Z,11.17
2022-10-13T18:56:43.856Z,16.73
2022-10-13T18:59:10.360Z,14.57
2022-10-13T19:01:37.994Z,12.50
2022-10-13T19:04:04.930Z,12.47
2022-10-13T19:06:32.514Z,13.57
2022-10-13T19:09:00.793Z,15.43
2022-10-13T19:11:28.376Z,16.77
2022-10-13T19:13:54.990Z,17.10
2022-10-13T19:16:23.160Z,15.10
2022-10-13T19:18:50.154Z,16.67
2022-10-13T19:21:17.042Z,15.23
2022-10-13T19:23:43.881Z,15.07
2022-10-13T19:26:23.886Z,15.87
2022-10-13T19:29:10.121Z,13.87
2022-10-13T19:31:38.087Z,13.43
2022-10-13T19:34:06.899Z,13.73
2022-10-13T19:36:35.234Z,13.73
2022-10-13T19:39:02.973Z,13.70
2022-10-13T19:41:31.365Z,13.10
2022-10-13T19:43:58.187Z,12.40
2022-10-13T19:46:34.474Z,12.97
2022-10-13T19:49:01.032Z,11.67
2022-10-13T19:51:27.465Z,12.03
2022-10-13T19:53:53.932Z,12.50
2022-10-13T19:56:24.967Z,12.00
2022-10-13T19:58:52.053Z,11.80
2022-10-13T20:01:19.924Z,11.83
2022-10-13T20:03:46.903Z,12.37
2022-10-13T20:06:13.748Z,12.80
2022-10-13T20:08:40.166Z,11.97
2022-10-13T20:11:08.058Z,11.70
2022-10-13T20:13:34.531Z,12.43
2022-10-13T20:16:05.196Z,12.53
2022-10-13T20:18:31.609Z,11.80
2022-10-13T20:21:01.190Z,11.80
2022-10-13T20:23:27.632Z,11.77
2022-10-13T20:25:54.213Z,11.67
2022-10-13T20:28:20.626Z,12.90
2022-10-13T20:30:47.085Z,12.13
2022-10-13T20:33:13.495Z,12.30
2022-10-13T20:35:39.928Z,12.37
2022-10-13T20:38:06.348Z,11.80
2022-10-13T20:40:32.766Z,12.10
2022-10-13T20:42:59.276Z,12.37
2022-10-13T20:45:25.818Z,12.50
2022-10-13T20:47:52.231Z,12.80
2022-10-13T20:50:18.679Z,12.03
2022-10-13T20:52:45.156Z,11.50
2022-10-13T20:55:11.633Z,12.03
2022-10-13T20:57:38.094Z,13.13
2022-10-13T21:00:05.623Z,12.93
2022-10-13T21:02:32.122Z,12.93
2022-10-13T21:04:58.517Z,13.03
2022-10-13T21:07:24.920Z,13.83
2022-10-13T21:09:53.860Z,13.90
2022-10-13T21:12:20.884Z,13.57
2022-10-13T21:14:47.316Z,13.57
2022-10-13T21:17:13.741Z,14.17
2022-10-13T21:19:40.196Z,14.50
2022-10-13T21:22:06.781Z,15.13
2022-10-13T21:24:33.577Z,13.17
2022-10-13T21:27:00.020Z,15.07
2022-10-13T21:29:26.545Z,14.00
2022-10-13T21:31:53.082Z,14.33
2022-10-13T21:34:19.627Z,13.93
2022-10-13T21:36:46.108Z,15.97
2022-10-13T21:39:13.069Z,14.60
2022-10-13T21:41:39.535Z,15.20
2022-10-13T21:44:06.332Z,13.70
2022-10-13T21:46:34.592Z,15.13
2022-10-13T21:49:02.105Z,15.33
2022-10-13T21:51:29.934Z,15.77
2022-10-13T21:53:57.376Z,14.83
2022-10-13T21:56:25.577Z,14.50
2022-10-13T21:58:52.286Z,14.67
2022-10-13T22:01:19.544Z,14.67
2022-10-13T22:03:47.199Z,15.10
2022-10-13T22:06:18.968Z,14.10
2022-10-13T22:08:46.254Z,14.57
2022-10-13T22:11:13.864Z,14.20
2022-10-13T22:13:40.763Z,14.53
2022-10-13T22:16:09.711Z,14.90
2022-10-13T22:18:40.799Z,15.53
2022-10-13T22:21:08.189Z,15.90
2022-10-13T22:23:34.919Z,15.13
2022-10-13T22:26:01.394Z,14.87
2022-10-13T22:28:27.945Z,16.03
2022-10-13T22:30:54.705Z,14.70
2022-10-13T22:33:21.235Z,14.87
2022-10-13T22:35:52.815Z,14.60
2022-10-13T22:38:21.392Z,15.10
2022-10-13T22:40:47.810Z,16.37
2022-10-13T22:43:14.314Z,16.17
2022-10-13T22:45:49.003Z,15.77
2022-10-13T22:48:15.412Z,17.10
2022-10-13T22:50:41.898Z,16.43
2022-10-13T22:53:08.329Z,15.83
2022-10-13T22:55:34.771Z,16.90
2022-10-13T22:58:01.220Z,15.77
2022-10-13T23:00:27.898Z,16.23
2022-10-13T23:02:54.316Z,15.53
2022-10-13T23:05:20.791Z,16.50
2022-10-13T23:07:47.250Z,15.70
2022-10-13T23:10:13.727Z,16.60
2022-10-13T23:12:41.876Z,15.60
2022-10-13T23:15:08.741Z,16.07
2022-10-13T23:17:35.350Z,16.10
2022-10-13T23:20:01.849Z,15.50
2022-10-13T23:22:28.274Z,15.47
2022-10-13T23:24:55.932Z,15.00
2022-10-13T23:27:22.776Z,14.80
2022-10-13T23:29:49.942Z,14.80
2022-10-13T23:32:16.367Z,15.63
2022-10-13T23:34:42.783Z,14.17
2022-10-13T23:37:09.815Z,14.57
2022-10-13T23:39:36.345Z,15.57
2022-10-13T23:42:02.827Z,15.00
2022-10-13T23:44:30.004Z,15.30
2022-10-13T23:46:56.742Z,14.93
2022-10-13T23:49:23.210Z,15.73
2022-10-13T23:51:49.685Z,15.20
2022-10-13T23:54:16.134Z,14.57
2022-10-13T23:56:42.537Z,13.50
2022-10-13T23:59:09.026Z,14.60
